sensor_id;sensor_type;location;lat;lon;timestamp;temperature;humidity
10543;DHT22;5320;50.046;10.314;2022-09-01T00:02:06;17.30;1.00
10543;DHT22;5320;50.046;10.314;2022-09-01T00:04:37;17.30;1.00
10543;DHT22;5320;50.046;10.314;2022-09-01T00:07:07;17.30;1.00
10543;DHT22;5320;50.046;10.314;2022-09-01T00:09:34;17.30;1.00
10543;DHT22;5320;50.046;10.314;2022-09-01T00:12:01;17.30;1.00
10543;DHT22;5320;50.046;10.314;2022-09-01T00:14:31;17.30;1.00
10543;DHT22;5320;50.046;10.314;2022-09-01T00:16:59;17.30;85.30
10543;DHT22;5320;50.046;10.314;2022-09-01T00:19:25;17.30;99.90
10543;DHT22;5320;50.046;10.314;2022-09-01T00:21:51;17.30;1.00
10543;DHT22;5320;50.046;10.314;2022-09-01T00:24:17;17.30;1.00
10543;DHT22;5320;50.046;10.314;2022-09-01T00:26:44;17.30;1.00
10543;DHT22;5320;50.046;10.314;2022-09-01T00:29:11;17.30;1.00
10543;DHT22;5320;50.046;10.314;2022-09-01T00:31:37;17.40;1.00
10543;DHT22;5320;50.046;10.314;2022-09-01T00:34:03;17.40;1.00
10543;DHT22;5320;50.046;10.314;2022-09-01T00:36:30;17.40;1.00
10543;DHT22;5320;50.046;10.314;2022-09-01T00:38:55;17.40;1.00
10543;DHT22;5320;50.046;10.314;2022-09-01T00:41:24;17.40;1.00
10543;DHT22;5320;50.046;10.314;2022-09-01T00:43:56;17.40;1.00
10543;DHT22;5320;50.046;10.314;2022-09-01T00:46:35;17.40;1.00
10543;DHT22;5320;50.046;10.314;2022-09-01T00:49:05;17.40;1.00
10543;DHT22;5320;50.046;10.314;2022-09-01T00:51:34;17.40;1.00
10543;DHT22;5320;50.046;10.314;2022-09-01T00:54:02;17.30;1.00
10543;DHT22;5320;50.046;10.314;2022-09-01T00:56:31;17.30;16.50
10543;DHT22;5320;50.046;10.314;2022-09-01T00:58:59;17.20;1.00
10543;DHT22;5320;50.046;10.314;2022-09-01T01:01:25;17.20;59.60
10543;DHT22;5320;50.046;10.314;2022-09-01T01:03:50;17.20;99.90
10543;DHT22;5320;50.046;10.314;2022-09-01T01:06:17;17.10;99.90
10543;DHT22;5320;50.046;10.314;2022-09-01T01:08:46;17.00;1.00
10543;DHT22;5320;50.046;10.314;2022-09-01T01:11:26;17.00;1.00
10543;DHT22;5320;50.046;10.314;2022-09-01T01:13:57;16.90;1.00
10543;DHT22;5320;50.046;10.314;2022-09-01T01:16:25;16.90;1.00
10543;DHT22;5320;50.046;10.314;2022-09-01T01:18:52;16.80;1.00
10543;DHT22;5320;50.046;10.314;2022-09-01T01:21:21;16.70;1.00
10543;DHT22;5320;50.046;10.314;2022-09-01T01:26:50;16.60;1.00
10543;DHT22;5320;50.046;10.314;2022-09-01T01:29:16;16.50;1.00
10543;DHT22;5320;50.046;10.314;2022-09-01T01:31:44;16.50;1.00
10543;DHT22;5320;50.046;10.314;2022-09-01T01:34:12;16.40;1.00
10543;DHT22;5320;50.046;10.314;2022-09-01T01:36:39;16.40;1.00
10543;DHT22;5320;50.046;10.314;2022-09-01T01:39:14;16.50;1.00
10543;DHT22;5320;50.046;10.314;2022-09-01T01:41:42;16.40;1.00
10543;DHT22;5320;50.046;10.314;2022-09-01T01:44:16;16.50;1.00
10543;DHT22;5320;50.046;10.314;2022-09-01T01:46:44;16.50;1.00
10543;DHT22;5320;50.046;10.314;2022-09-01T01:49:12;16.50;1.00
10543;DHT22;5320;50.046;10.314;2022-09-01T01:51:39;16.50;1.00
10543;DHT22;5320;50.046;10.314;2022-09-01T01:54:05;16.50;1.00
10543;DHT22;5320;50.046;10.314;2022-09-01T01:56:33;16.50;1.00
10543;DHT22;5320;50.046;10.314;2022-09-01T01:59:02;16.40;1.00
10543;DHT22;5320;50.046;10.314;2022-09-01T02:01:29;16.40;1.00
10543;DHT22;5320;50.046;10.314;2022-09-01T02:03:58;16.40;1.00
10543;DHT22;5320;50.046;10.314;2022-09-01T02:06:25;16.40;1.00
10543;DHT22;5320;50.046;10.314;2022-09-01T02:08:53;16.40;1.00
10543;DHT22;5320;50.046;10.314;2022-09-01T02:11:23;16.30;1.00
10543;DHT22;5320;50.046;10.314;2022-09-01T02:13:51;16.30;1.00
10543;DHT22;5320;50.046;10.314;2022-09-01T02:16:21;16.20;1.00
10543;DHT22;5320;50.046;10.314;2022-09-01T02:18:47;16.20;1.00
10543;DHT22;5320;50.046;10.314;2022-09-01T02:21:19;16.20;6.10
10543;DHT22;5320;50.046;10.314;2022-09-01T02:23:51;16.10;16.10
10543;DHT22;5320;50.046;10.314;2022-09-01T02:26:25;16.10;19.70
10543;DHT22;5320;50.046;10.314;2022-09-01T02:28:59;16.10;46.10
10543;DHT22;5320;50.046;10.314;2022-09-01T02:31:34;16.10;26.00
10543;DHT22;5320;50.046;10.314;2022-09-01T02:34:04;16.10;33.80
10543;DHT22;5320;50.046;10.314;2022-09-01T02:36:36;16.10;1.30
10543;DHT22;5320;50.046;10.314;2022-09-01T02:39:06;16.20;15.70
10543;DHT22;5320;50.046;10.314;2022-09-01T02:41:31;16.20;12.20
10543;DHT22;5320;50.046;10.314;2022-09-01T02:43:59;16.20;19.50
10543;DHT22;5320;50.046;10.314;2022-09-01T02:46:27;16.20;8.30
10543;DHT22;5320;50.046;10.314;2022-09-01T02:48:54;16.20;11.10
10543;DHT22;5320;50.046;10.314;2022-09-01T02:51:22;16.10;22.10
10543;DHT22;5320;50.046;10.314;2022-09-01T02:53:50;16.10;17.10
10543;DHT22;5320;50.046;10.314;2022-09-01T02:56:20;16.10;22.00
10543;DHT22;5320;50.046;10.314;2022-09-01T02:58:47;16.10;26.00
10543;DHT22;5320;50.046;10.314;2022-09-01T03:01:29;16.00;41.50
10543;DHT22;5320;50.046;10.314;2022-09-01T03:03:58;16.00;29.80
10543;DHT22;5320;50.046;10.314;2022-09-01T03:06:24;16.00;64.40
10543;DHT22;5320;50.046;10.314;2022-09-01T03:08:53;15.90;91.90
10543;DHT22;5320;50.046;10.314;2022-09-01T03:11:19;15.90;89.40
10543;DHT22;5320;50.046;10.314;2022-09-01T03:13:46;15.90;99.90
10543;DHT22;5320;50.046;10.314;2022-09-01T03:16:12;15.90;99.90
10543;DHT22;5320;50.046;10.314;2022-09-01T03:18:38;15.80;99.90
10543;DHT22;5320;50.046;10.314;2022-09-01T03:21:05;15.80;99.90
10543;DHT22;5320;50.046;10.314;2022-09-01T03:23:33;15.80;99.90
10543;DHT22;5320;50.046;10.314;2022-09-01T03:25:59;15.70;99.90
10543;DHT22;5320;50.046;10.314;2022-09-01T03:28:26;15.70;99.90
10543;DHT22;5320;50.046;10.314;2022-09-01T03:30:54;15.60;99.90
10543;DHT22;5320;50.046;10.314;2022-09-01T03:33:21;15.60;99.90
10543;DHT22;5320;50.046;10.314;2022-09-01T03:35:47;15.60;99.90
10543;DHT22;5320;50.046;10.314;2022-09-01T03:38:14;15.50;99.90
10543;DHT22;5320;50.046;10.314;2022-09-01T03:40:47;15.50;99.90
10543;DHT22;5320;50.046;10.314;2022-09-01T03:43:14;15.40;99.90
10543;DHT22;5320;50.046;10.314;2022-09-01T03:45:41;15.40;99.90
10543;DHT22;5320;50.046;10.314;2022-09-01T03:48:08;15.30;99.90
10543;DHT22;5320;50.046;10.314;2022-09-01T03:50:40;15.30;99.90
10543;DHT22;5320;50.046;10.314;2022-09-01T03:53:16;15.30;99.90
10543;DHT22;5320;50.046;10.314;2022-09-01T03:55:44;15.20;99.90
10543;DHT22;5320;50.046;10.314;2022-09-01T03:58:11;15.20;99.90
10543;DHT22;5320;50.046;10.314;2022-09-01T04:00:42;15.20;99.90
10543;DHT22;5320;50.046;10.314;2022-09-01T04:03:11;15.20;99.90
10543;DHT22;5320;50.046;10.314;2022-09-01T04:05:40;15.20;99.90
10543;DHT22;5320;50.046;10.314;2022-09-01T04:08:10;15.20;99.90
10543;DHT22;5320;50.046;10.314;2022-09-01T04:10:44;15.20;99.90
10543;DHT22;5320;50.046;10.314;2022-09-01T04:13:21;15.20;99.90
10543;DHT22;5320;50.046;10.314;2022-09-01T04:15:47;15.20;99.90
10543;DHT22;5320;50.046;10.314;2022-09-01T04:18:14;15.10;99.90
10543;DHT22;5320;50.046;10.314;2022-09-01T04:20:49;15.00;99.90
10543;DHT22;5320;50.046;10.314;2022-09-01T04:23:24;15.00;99.90
10543;DHT22;5320;50.046;10.314;2022-09-01T04:26:04;15.00;99.90
10543;DHT22;5320;50.046;10.314;2022-09-01T04:28:36;15.00;99.90
10543;DHT22;5320;50.046;10.314;2022-09-01T04:31:06;15.00;99.90
10543;DHT22;5320;50.046;10.314;2022-09-01T04:33:37;15.00;99.90
10543;DHT22;5320;50.046;10.314;2022-09-01T04:38:49;15.00;99.90
10543;DHT22;5320;50.046;10.314;2022-09-01T04:41:15;15.00;99.90
10543;DHT22;5320;50.046;10.314;2022-09-01T04:43:46;15.00;99.90
10543;DHT22;5320;50.046;10.314;2022-09-01T04:46:14;15.00;99.90
10543;DHT22;5320;50.046;10.314;2022-09-01T04:48:41;15.00;99.90
10543;DHT22;5320;50.046;10.314;2022-09-01T04:51:10;15.00;99.90
10543;DHT22;5320;50.046;10.314;2022-09-01T04:53:41;15.00;99.90
10543;DHT22;5320;50.046;10.314;2022-09-01T04:56:19;15.00;99.90
10543;DHT22;5320;50.046;10.314;2022-09-01T04:58:46;15.00;99.90
10543;DHT22;5320;50.046;10.314;2022-09-01T05:01:22;15.00;99.90
10543;DHT22;5320;50.046;10.314;2022-09-01T05:03:50;15.00;99.90
10543;DHT22;5320;50.046;10.314;2022-09-01T05:06:27;15.00;99.90
10543;DHT22;5320;50.046;10.314;2022-09-01T05:08:54;15.00;99.90
10543;DHT22;5320;50.046;10.314;2022-09-01T05:11:24;15.00;99.90
10543;DHT22;5320;50.046;10.314;2022-09-01T05:13:50;15.10;99.90
10543;DHT22;5320;50.046;10.314;2022-09-01T05:16:20;15.10;99.90
10543;DHT22;5320;50.046;10.314;2022-09-01T05:18:49;15.20;99.90
10543;DHT22;5320;50.046;10.314;2022-09-01T05:21:18;15.30;94.60
10543;DHT22;5320;50.046;10.314;2022-09-01T05:23:47;15.30;64.10
10543;DHT22;5320;50.046;10.314;2022-09-01T05:26:25;15.30;34.80
10543;DHT22;5320;50.046;10.314;2022-09-01T05:28:54;15.50;66.60
10543;DHT22;5320;50.046;10.314;2022-09-01T05:31:26;15.60;1.00
10543;DHT22;5320;50.046;10.314;2022-09-01T05:33:53;15.60;1.00
10543;DHT22;5320;50.046;10.314;2022-09-01T05:36:22;15.60;1.00
10543;DHT22;5320;50.046;10.314;2022-09-01T05:38:48;15.70;1.00
10543;DHT22;5320;50.046;10.314;2022-09-01T05:41:17;15.70;1.00
10543;DHT22;5320;50.046;10.314;2022-09-01T05:43:46;15.70;1.00
10543;DHT22;5320;50.046;10.314;2022-09-01T05:46:19;15.70;1.00
10543;DHT22;5320;50.046;10.314;2022-09-01T05:48:47;15.70;1.00
10543;DHT22;5320;50.046;10.314;2022-09-01T05:51:16;15.70;1.00
10543;DHT22;5320;50.046;10.314;2022-09-01T05:53:52;15.80;1.00
10543;DHT22;5320;50.046;10.314;2022-09-01T05:56:20;15.80;1.00
10543;DHT22;5320;50.046;10.314;2022-09-01T05:58:48;15.90;1.00
10543;DHT22;5320;50.046;10.314;2022-09-01T06:01:18;16.00;1.00
10543;DHT22;5320;50.046;10.314;2022-09-01T06:03:56;16.10;1.00
10543;DHT22;5320;50.046;10.314;2022-09-01T06:06:25;16.30;1.00
10543;DHT22;5320;50.046;10.314;2022-09-01T06:08:52;16.40;1.00
10543;DHT22;5320;50.046;10.314;2022-09-01T06:11:19;16.50;1.00
10543;DHT22;5320;50.046;10.314;2022-09-01T06:13:46;16.60;1.00
10543;DHT22;5320;50.046;10.314;2022-09-01T06:16:13;16.80;99.90
10543;DHT22;5320;50.046;10.314;2022-09-01T06:18:42;16.90;99.90
10543;DHT22;5320;50.046;10.314;2022-09-01T06:21:10;16.90;99.90
10543;DHT22;5320;50.046;10.314;2022-09-01T06:23:43;17.00;1.00
10543;DHT22;5320;50.046;10.314;2022-09-01T06:26:17;17.10;1.00
10543;DHT22;5320;50.046;10.314;2022-09-01T06:28:44;17.20;1.00
10543;DHT22;5320;50.046;10.314;2022-09-01T06:31:10;17.30;99.90
10543;DHT22;5320;50.046;10.314;2022-09-01T06:33:37;17.40;38.20
10543;DHT22;5320;50.046;10.314;2022-09-01T06:36:04;17.40;1.00
10543;DHT22;5320;50.046;10.314;2022-09-01T06:38:30;17.50;1.00
10543;DHT22;5320;50.046;10.314;2022-09-01T06:41:03;17.50;1.00
10543;DHT22;5320;50.046;10.314;2022-09-01T06:43:31;17.60;99.90
10543;DHT22;5320;50.046;10.314;2022-09-01T06:46:00;17.60;1.00
10543;DHT22;5320;50.046;10.314;2022-09-01T06:48:26;17.80;1.00
10543;DHT22;5320;50.046;10.314;2022-09-01T06:50:59;17.90;99.90
10543;DHT22;5320;50.046;10.314;2022-09-01T06:53:26;17.90;99.90
10543;DHT22;5320;50.046;10.314;2022-09-01T06:55:52;18.00;99.90
10543;DHT22;5320;50.046;10.314;2022-09-01T06:58:17;18.10;1.00
10543;DHT22;5320;50.046;10.314;2022-09-01T07:00:43;18.10;1.00
10543;DHT22;5320;50.046;10.314;2022-09-01T07:03:11;18.20;99.90
10543;DHT22;5320;50.046;10.314;2022-09-01T07:05:40;18.30;1.00
10543;DHT22;5320;50.046;10.314;2022-09-01T07:08:08;18.30;1.00
10543;DHT22;5320;50.046;10.314;2022-09-01T07:10:43;18.40;1.00
10543;DHT22;5320;50.046;10.314;2022-09-01T07:13:14;18.50;1.00
10543;DHT22;5320;50.046;10.314;2022-09-01T07:15:45;18.60;1.00
10543;DHT22;5320;50.046;10.314;2022-09-01T07:18:20;18.70;1.00
10543;DHT22;5320;50.046;10.314;2022-09-01T07:20:47;18.90;5.80
10543;DHT22;5320;50.046;10.314;2022-09-01T07:23:15;19.00;1.00
10543;DHT22;5320;50.046;10.314;2022-09-01T07:25:46;19.10;98.70
10543;DHT22;5320;50.046;10.314;2022-09-01T07:28:14;19.10;94.10
10543;DHT22;5320;50.046;10.314;2022-09-01T07:30:46;19.30;1.00
10543;DHT22;5320;50.046;10.314;2022-09-01T07:33:14;19.40;99.90
10543;DHT22;5320;50.046;10.314;2022-09-01T07:35:41;19.50;99.90
10543;DHT22;5320;50.046;10.314;2022-09-01T07:38:07;19.60;1.00
10543;DHT22;5320;50.046;10.314;2022-09-01T07:40:35;19.70;99.90
10543;DHT22;5320;50.046;10.314;2022-09-01T07:43:05;19.80;99.90
10543;DHT22;5320;50.046;10.314;2022-09-01T07:45:35;19.90;99.90
10543;DHT22;5320;50.046;10.314;2022-09-01T07:48:06;20.00;99.90
10543;DHT22;5320;50.046;10.314;2022-09-01T07:50:34;20.10;1.00
10543;DHT22;5320;50.046;10.314;2022-09-01T07:53:01;20.10;1.00
10543;DHT22;5320;50.046;10.314;2022-09-01T07:55:27;20.10;1.00
10543;DHT22;5320;50.046;10.314;2022-09-01T07:57:53;20.20;1.00
10543;DHT22;5320;50.046;10.314;2022-09-01T08:00:19;20.20;1.00
10543;DHT22;5320;50.046;10.314;2022-09-01T08:02:51;20.30;1.00
10543;DHT22;5320;50.046;10.314;2022-09-01T08:05:17;20.50;1.00
10543;DHT22;5320;50.046;10.314;2022-09-01T08:07:47;20.60;99.90
10543;DHT22;5320;50.046;10.314;2022-09-01T08:10:14;20.70;99.90
10543;DHT22;5320;50.046;10.314;2022-09-01T08:12:41;20.80;35.70
10543;DHT22;5320;50.046;10.314;2022-09-01T08:15:08;20.80;1.00
10543;DHT22;5320;50.046;10.314;2022-09-01T08:17:36;20.80;1.00
10543;DHT22;5320;50.046;10.314;2022-09-01T08:20:02;20.90;1.00
10543;DHT22;5320;50.046;10.314;2022-09-01T08:22:31;20.90;1.00
10543;DHT22;5320;50.046;10.314;2022-09-01T08:24:57;21.00;1.00
10543;DHT22;5320;50.046;10.314;2022-09-01T08:27:22;21.10;1.00
10543;DHT22;5320;50.046;10.314;2022-09-01T08:29:48;21.20;1.00
10543;DHT22;5320;50.046;10.314;2022-09-01T08:32:14;21.40;1.00
10543;DHT22;5320;50.046;10.314;2022-09-01T08:34:40;21.40;1.00
10543;DHT22;5320;50.046;10.314;2022-09-01T08:37:07;21.40;1.00
10543;DHT22;5320;50.046;10.314;2022-09-01T08:39:33;21.60;1.00
10543;DHT22;5320;50.046;10.314;2022-09-01T08:45:12;21.80;99.90
10543;DHT22;5320;50.046;10.314;2022-09-01T08:47:40;21.90;99.90
10543;DHT22;5320;50.046;10.314;2022-09-01T08:50:06;22.10;99.90
10543;DHT22;5320;50.046;10.314;2022-09-01T08:52:36;22.30;99.90
10543;DHT22;5320;50.046;10.314;2022-09-01T08:58:09;22.20;20.50
10543;DHT22;5320;50.046;10.314;2022-09-01T09:00:40;22.10;8.20
10543;DHT22;5320;50.046;10.314;2022-09-01T09:03:19;22.30;1.00
10543;DHT22;5320;50.046;10.314;2022-09-01T09:06:12;22.50;1.00
10543;DHT22;5320;50.046;10.314;2022-09-01T09:08:58;22.50;1.00
10543;DHT22;5320;50.046;10.314;2022-09-01T09:17:12;23.00;1.00
10543;DHT22;5320;50.046;10.314;2022-09-01T09:19:42;23.50;1.00
10543;DHT22;5320;50.046;10.314;2022-09-01T09:22:15;23.50;1.00
10543;DHT22;5320;50.046;10.314;2022-09-01T09:24:56;23.60;1.00
10543;DHT22;5320;50.046;10.314;2022-09-01T09:27:33;23.60;1.00
10543;DHT22;5320;50.046;10.314;2022-09-01T09:35:27;24.90;99.90
10543;DHT22;5320;50.046;10.314;2022-09-01T09:41:07;24.30;99.90
10543;DHT22;5320;50.046;10.314;2022-09-01T09:44:18;24.40;99.90
10543;DHT22;5320;50.046;10.314;2022-09-01T09:46:43;24.40;99.90
10543;DHT22;5320;50.046;10.314;2022-09-01T09:49:28;24.40;99.90
10543;DHT22;5320;50.046;10.314;2022-09-01T09:54:31;24.10;99.90
10543;DHT22;5320;50.046;10.314;2022-09-01T10:00:14;23.90;99.90
10543;DHT22;5320;50.046;10.314;2022-09-01T10:02:34;23.80;99.90
10543;DHT22;5320;50.046;10.314;2022-09-01T10:07:48;23.70;99.90
10543;DHT22;5320;50.046;10.314;2022-09-01T10:10:41;23.50;99.90
10543;DHT22;5320;50.046;10.314;2022-09-01T10:13:16;23.60;99.90
10543;DHT22;5320;50.046;10.314;2022-09-01T10:15:58;23.60;99.90
10543;DHT22;5320;50.046;10.314;2022-09-01T10:18:50;23.60;99.90
10543;DHT22;5320;50.046;10.314;2022-09-01T10:21:25;23.70;99.90
10543;DHT22;5320;50.046;10.314;2022-09-01T10:23:53;23.70;99.90
10543;DHT22;5320;50.046;10.314;2022-09-01T10:26:31;23.70;99.90
10543;DHT22;5320;50.046;10.314;2022-09-01T10:29:21;23.70;99.90
10543;DHT22;5320;50.046;10.314;2022-09-01T10:31:50;23.90;99.90
10543;DHT22;5320;50.046;10.314;2022-09-01T10:34:17;23.90;99.90
10543;DHT22;5320;50.046;10.314;2022-09-01T10:36:46;23.90;99.90
10543;DHT22;5320;50.046;10.314;2022-09-01T10:39:15;23.50;99.90
10543;DHT22;5320;50.046;10.314;2022-09-01T10:44:17;23.20;99.90
10543;DHT22;5320;50.046;10.314;2022-09-01T10:46:44;23.10;99.90
10543;DHT22;5320;50.046;10.314;2022-09-01T10:51:52;23.50;99.90
10543;DHT22;5320;50.046;10.314;2022-09-01T10:59:49;23.80;99.90
10543;DHT22;5320;50.046;10.314;2022-09-01T11:02:19;23.60;99.90
10543;DHT22;5320;50.046;10.314;2022-09-01T11:09:45;23.60;99.90
10543;DHT22;5320;50.046;10.314;2022-09-01T11:22:33;24.00;99.90
10543;DHT22;5320;50.046;10.314;2022-09-01T11:30:21;23.90;99.90
10543;DHT22;5320;50.046;10.314;2022-09-01T11:32:50;24.00;99.90
10543;DHT22;5320;50.046;10.314;2022-09-01T11:35:23;24.10;99.90
10543;DHT22;5320;50.046;10.314;2022-09-01T11:37:54;24.40;99.90
10543;DHT22;5320;50.046;10.314;2022-09-01T11:40:27;24.50;99.90
10543;DHT22;5320;50.046;10.314;2022-09-01T11:42:55;24.40;99.90
10543;DHT22;5320;50.046;10.314;2022-09-01T11:45:25;24.30;99.90
10543;DHT22;5320;50.046;10.314;2022-09-01T11:48:10;24.10;99.90
10543;DHT22;5320;50.046;10.314;2022-09-01T11:50:40;24.00;99.90
10543;DHT22;5320;50.046;10.314;2022-09-01T11:53:13;24.00;99.90
10543;DHT22;5320;50.046;10.314;2022-09-01T11:55:48;23.80;99.90
10543;DHT22;5320;50.046;10.314;2022-09-01T11:58:28;24.00;99.90
10543;DHT22;5320;50.046;10.314;2022-09-01T12:03:56;24.00;99.90
10543;DHT22;5320;50.046;10.314;2022-09-01T12:06:27;24.10;99.90
10543;DHT22;5320;50.046;10.314;2022-09-01T12:09:02;24.10;99.90
10543;DHT22;5320;50.046;10.314;2022-09-01T12:11:33;24.20;99.90
10543;DHT22;5320;50.046;10.314;2022-09-01T12:14:06;24.10;99.90
10543;DHT22;5320;50.046;10.314;2022-09-01T12:16:33;24.00;99.90
10543;DHT22;5320;50.046;10.314;2022-09-01T12:19:02;24.10;99.90
10543;DHT22;5320;50.046;10.314;2022-09-01T12:21:34;24.20;99.90
10543;DHT22;5320;50.046;10.314;2022-09-01T12:26:40;24.20;99.90
10543;DHT22;5320;50.046;10.314;2022-09-01T12:29:07;24.00;99.90
10543;DHT22;5320;50.046;10.314;2022-09-01T12:31:33;24.00;99.90
10543;DHT22;5320;50.046;10.314;2022-09-01T12:33:59;23.80;99.90
10543;DHT22;5320;50.046;10.314;2022-09-01T12:36:36;23.70;99.90
10543;DHT22;5320;50.046;10.314;2022-09-01T12:39:32;23.80;99.90
10543;DHT22;5320;50.046;10.314;2022-09-01T12:44:32;23.70;99.90
10543;DHT22;5320;50.046;10.314;2022-09-01T12:47:08;23.80;99.90
10543;DHT22;5320;50.046;10.314;2022-09-01T12:49:45;23.90;99.90
10543;DHT22;5320;50.046;10.314;2022-09-01T12:54:37;24.00;99.90
10543;DHT22;5320;50.046;10.314;2022-09-01T12:57:04;24.50;98.50
10543;DHT22;5320;50.046;10.314;2022-09-01T12:59:30;25.00;54.60
10543;DHT22;5320;50.046;10.314;2022-09-01T13:01:56;25.30;1.00
10543;DHT22;5320;50.046;10.314;2022-09-01T13:04:29;25.70;1.00
10543;DHT22;5320;50.046;10.314;2022-09-01T13:07:04;26.20;1.00
10543;DHT22;5320;50.046;10.314;2022-09-01T13:09:30;26.60;1.00
10543;DHT22;5320;50.046;10.314;2022-09-01T13:12:17;27.20;1.00
10543;DHT22;5320;50.046;10.314;2022-09-01T13:14:43;27.70;1.00
10543;DHT22;5320;50.046;10.314;2022-09-01T13:17:09;28.10;1.00
10543;DHT22;5320;50.046;10.314;2022-09-01T13:19:37;28.40;1.00
10543;DHT22;5320;50.046;10.314;2022-09-01T13:22:04;28.40;1.00
10543;DHT22;5320;50.046;10.314;2022-09-01T13:24:31;27.90;1.00
10543;DHT22;5320;50.046;10.314;2022-09-01T13:26:57;27.40;1.00
10543;DHT22;5320;50.046;10.314;2022-09-01T13:29:23;27.30;1.00
10543;DHT22;5320;50.046;10.314;2022-09-01T13:31:49;27.70;1.00
10543;DHT22;5320;50.046;10.314;2022-09-01T13:34:15;28.00;1.00
10543;DHT22;5320;50.046;10.314;2022-09-01T13:36:41;28.50;1.00
10543;DHT22;5320;50.046;10.314;2022-09-01T13:39:06;29.20;1.00
10543;DHT22;5320;50.046;10.314;2022-09-01T13:41:32;28.90;1.00
10543;DHT22;5320;50.046;10.314;2022-09-01T13:43:58;28.80;1.00
10543;DHT22;5320;50.046;10.314;2022-09-01T13:46:25;28.80;1.00
10543;DHT22;5320;50.046;10.314;2022-09-01T13:48:51;28.10;1.00
10543;DHT22;5320;50.046;10.314;2022-09-01T13:51:27;27.60;1.00
10543;DHT22;5320;50.046;10.314;2022-09-01T13:53:54;27.60;1.00
10543;DHT22;5320;50.046;10.314;2022-09-01T13:56:19;27.80;1.00
10543;DHT22;5320;50.046;10.314;2022-09-01T13:58:45;28.00;1.00
10543;DHT22;5320;50.046;10.314;2022-09-01T14:01:13;27.60;1.00
10543;DHT22;5320;50.046;10.314;2022-09-01T14:03:40;27.60;1.00
10543;DHT22;5320;50.046;10.314;2022-09-01T14:06:06;27.60;1.00
10543;DHT22;5320;50.046;10.314;2022-09-01T14:08:32;27.70;1.00
10543;DHT22;5320;50.046;10.314;2022-09-01T14:10:58;27.80;1.00
10543;DHT22;5320;50.046;10.314;2022-09-01T14:13:25;28.10;1.00
10543;DHT22;5320;50.046;10.314;2022-09-01T14:15:51;27.40;1.00
10543;DHT22;5320;50.046;10.314;2022-09-01T14:18:18;26.90;1.00
10543;DHT22;5320;50.046;10.314;2022-09-01T14:20:48;26.80;1.00
10543;DHT22;5320;50.046;10.314;2022-09-01T14:23:16;26.60;1.00
10543;DHT22;5320;50.046;10.314;2022-09-01T14:25:45;26.50;1.00
10543;DHT22;5320;50.046;10.314;2022-09-01T14:28:12;26.50;1.00
10543;DHT22;5320;50.046;10.314;2022-09-01T14:30:40;27.00;1.00
10543;DHT22;5320;50.046;10.314;2022-09-01T14:33:08;27.40;1.00
10543;DHT22;5320;50.046;10.314;2022-09-01T14:35:37;27.30;1.00
10543;DHT22;5320;50.046;10.314;2022-09-01T14:38:03;26.80;1.00
10543;DHT22;5320;50.046;10.314;2022-09-01T14:40:31;26.60;1.00
10543;DHT22;5320;50.046;10.314;2022-09-01T14:42:58;26.60;1.00
10543;DHT22;5320;50.046;10.314;2022-09-01T14:45:26;26.50;1.00
10543;DHT22;5320;50.046;10.314;2022-09-01T14:47:55;26.40;1.00
10543;DHT22;5320;50.046;10.314;2022-09-01T14:50:22;26.40;1.00
10543;DHT22;5320;50.046;10.314;2022-09-01T14:52:53;26.30;1.00
10543;DHT22;5320;50.046;10.314;2022-09-01T14:55:21;26.30;1.00
10543;DHT22;5320;50.046;10.314;2022-09-01T14:57:47;26.10;1.00
10543;DHT22;5320;50.046;10.314;2022-09-01T15:00:13;26.00;1.00
10543;DHT22;5320;50.046;10.314;2022-09-01T15:02:41;25.90;1.00
10543;DHT22;5320;50.046;10.314;2022-09-01T15:05:08;26.00;1.00
10543;DHT22;5320;50.046;10.314;2022-09-01T15:07:34;26.00;1.00
10543;DHT22;5320;50.046;10.314;2022-09-01T15:10:00;26.20;1.00
10543;DHT22;5320;50.046;10.314;2022-09-01T15:12:26;26.00;1.00
10543;DHT22;5320;50.046;10.314;2022-09-01T15:14:56;25.80;1.00
10543;DHT22;5320;50.046;10.314;2022-09-01T15:17:23;26.20;1.00
10543;DHT22;5320;50.046;10.314;2022-09-01T15:19:50;26.30;1.00
10543;DHT22;5320;50.046;10.314;2022-09-01T15:22:16;26.00;1.00
10543;DHT22;5320;50.046;10.314;2022-09-01T15:24:42;25.70;1.00
10543;DHT22;5320;50.046;10.314;2022-09-01T15:27:08;25.50;1.00
10543;DHT22;5320;50.046;10.314;2022-09-01T15:29:36;25.40;1.00
10543;DHT22;5320;50.046;10.314;2022-09-01T15:32:14;25.40;1.00
10543;DHT22;5320;50.046;10.314;2022-09-01T15:34:41;25.30;1.00
10543;DHT22;5320;50.046;10.314;2022-09-01T15:37:06;25.40;1.00
10543;DHT22;5320;50.046;10.314;2022-09-01T15:39:33;25.50;1.00
10543;DHT22;5320;50.046;10.314;2022-09-01T15:41:59;25.60;1.00
10543;DHT22;5320;50.046;10.314;2022-09-01T15:44:27;25.60;1.00
10543;DHT22;5320;50.046;10.314;2022-09-01T15:46:54;25.60;1.00
10543;DHT22;5320;50.046;10.314;2022-09-01T15:49:20;25.70;1.00
10543;DHT22;5320;50.046;10.314;2022-09-01T15:51:45;26.00;1.00
10543;DHT22;5320;50.046;10.314;2022-09-01T15:54:17;26.30;1.00
10543;DHT22;5320;50.046;10.314;2022-09-01T15:56:43;26.40;1.00
10543;DHT22;5320;50.046;10.314;2022-09-01T15:59:11;26.40;1.00
10543;DHT22;5320;50.046;10.314;2022-09-01T16:01:40;26.40;1.00
10543;DHT22;5320;50.046;10.314;2022-09-01T16:04:08;26.40;1.00
10543;DHT22;5320;50.046;10.314;2022-09-01T16:06:38;26.40;1.00
10543;DHT22;5320;50.046;10.314;2022-09-01T16:09:08;26.30;1.00
10543;DHT22;5320;50.046;10.314;2022-09-01T16:11:34;26.30;1.00
10543;DHT22;5320;50.046;10.314;2022-09-01T16:14:03;26.30;1.00
10543;DHT22;5320;50.046;10.314;2022-09-01T16:19:16;26.10;1.00
10543;DHT22;5320;50.046;10.314;2022-09-01T16:24:13;25.50;1.00
10543;DHT22;5320;50.046;10.314;2022-09-01T16:26:40;25.20;1.00
10543;DHT22;5320;50.046;10.314;2022-09-01T16:29:13;24.90;1.00
10543;DHT22;5320;50.046;10.314;2022-09-01T16:31:41;24.80;1.00
10543;DHT22;5320;50.046;10.314;2022-09-01T16:34:14;24.70;1.00
10543;DHT22;5320;50.046;10.314;2022-09-01T16:37:09;24.70;1.00
10543;DHT22;5320;50.046;10.314;2022-09-01T16:39:50;24.60;1.00
10543;DHT22;5320;50.046;10.314;2022-09-01T16:45:50;24.80;1.00
10543;DHT22;5320;50.046;10.314;2022-09-01T16:51:09;24.90;1.00
10543;DHT22;5320;50.046;10.314;2022-09-01T16:56:49;25.30;1.00
10543;DHT22;5320;50.046;10.314;2022-09-01T16:59:23;25.20;1.00
10543;DHT22;5320;50.046;10.314;2022-09-01T17:01:55;25.10;1.00
10543;DHT22;5320;50.046;10.314;2022-09-01T17:04:41;25.00;1.00
10543;DHT22;5320;50.046;10.314;2022-09-01T17:07:15;25.10;1.00
10543;DHT22;5320;50.046;10.314;2022-09-01T17:12:22;24.80;1.00
10543;DHT22;5320;50.046;10.314;2022-09-01T17:15:11;24.70;1.00
10543;DHT22;5320;50.046;10.314;2022-09-01T17:17:54;24.60;1.00
10543;DHT22;5320;50.046;10.314;2022-09-01T17:20:24;24.40;1.00
10543;DHT22;5320;50.046;10.314;2022-09-01T17:22:51;24.40;1.00
10543;DHT22;5320;50.046;10.314;2022-09-01T17:25:28;24.40;1.00
10543;DHT22;5320;50.046;10.314;2022-09-01T17:28:17;24.20;1.00
10543;DHT22;5320;50.046;10.314;2022-09-01T17:34:01;24.00;1.00